Time;durP1;ratioP1;P1;durP2;ratioP2;P2;SDS_P1;SDS_P2;PMS_P1;PMS_P2;Temp;Humidity;BMP_temperature;BMP_pressure;BME280_temperature;BME280_humidity;BME280_pressure;Samples;Min_cycle;Max_cycle;Signal;HPM_P1;HPM_P2
2021/10/10 04:00:42;;;;;;;16.00;14.37;;;7.30;99.90;;;;;;6221165;22;20442;-68
2021/10/10 04:03:10;;;;;;;14.50;13.10;;;7.30;99.90;;;;;;6248324;23;20410;-68
2021/10/10 04:05:40;;;;;;;15.43;13.83;;;7.30;99.90;;;;;;6248709;23;20414;-69
2021/10/10 04:08:08;;;;;;;16.37;14.47;;;7.20;99.90;;;;;;6249307;23;20375;-68
2021/10/10 04:10:35;;;;;;;16.33;14.40;;;7.10;99.90;;;;;;6248138;22;20423;-68
2021/10/10 04:13:02;;;;;;;15.87;14.30;;;7.10;99.90;;;;;;6248270;23;20407;-68
2021/10/10 04:15:29;;;;;;;16.20;14.60;;;7.10;99.90;;;;;;6248153;23;20938;-68
2021/10/10 04:17:57;;;;;;;15.90;14.30;;;7.00;99.90;;;;;;6248302;23;20406;-69
2021/10/10 04:20:24;;;;;;;18.40;13.93;;;7.00;99.90;;;;;;6248144;22;20477;-69
2021/10/10 04:22:51;;;;;;;15.70;13.80;;;7.00;99.90;;;;;;6248144;23;20422;-69
2021/10/10 04:25:17;;;;;;;16.90;15.10;;;7.00;99.90;;;;;;6247758;23;20411;-69
2021/10/10 04:27:44;;;;;;;17.53;14.67;;;6.90;99.90;;;;;;6248458;23;20418;-69
2021/10/10 04:30:13;;;;;;;17.23;15.43;;;6.90;99.90;;;;;;6248377;22;20414;-69
2021/10/10 04:32:40;;;;;;;17.27;15.43;;;6.90;99.90;;;;;;6248235;23;20410;-69
2021/10/10 04:35:09;;;;;;;16.33;14.63;;;6.90;99.90;;;;;;6247986;23;20410;-69
2021/10/10 04:37:36;;;;;;;14.83;13.50;;;6.90;99.90;;;;;;6248341;23;20414;-69
2021/10/10 04:40:03;;;;;;;15.77;14.00;;;6.80;99.90;;;;;;6247531;23;20439;-69
2021/10/10 04:42:29;;;;;;;19.20;16.17;;;6.80;99.90;;;;;;6249193;22;20943;-69
2021/10/10 04:44:56;;;;;;;15.23;13.77;;;6.80;99.90;;;;;;6248315;23;20441;-69
2021/10/10 04:47:23;;;;;;;19.03;16.00;;;6.80;99.90;;;;;;6248712;23;20805;-69
2021/10/10 04:49:49;;;;;;;17.30;15.60;;;6.70;99.90;;;;;;6248487;23;20414;-69
2021/10/10 04:52:17;;;;;;;17.03;15.33;;;6.70;99.90;;;;;;6247968;22;20759;-69
2021/10/10 04:54:47;;;;;;;16.90;15.20;;;6.70;99.90;;;;;;6248212;23;20411;-69
2021/10/10 04:57:14;;;;;;;14.87;13.37;;;6.70;99.90;;;;;;6248189;23;20744;-69
2021/10/10 04:59:41;;;;;;;18.40;15.33;;;6.70;99.90;;;;;;6247987;23;20462;-69
2021/10/10 05:02:07;;;;;;;18.20;15.13;;;6.80;99.90;;;;;;6247434;22;20446;-69
2021/10/10 05:04:34;;;;;;;17.27;15.40;;;6.80;99.90;;;;;;6247954;23;20411;-68
2021/10/10 05:07:01;;;;;;;15.77;14.10;;;6.80;99.90;;;;;;6247434;23;20501;-69
2021/10/10 05:09:29;;;;;;;18.90;14.93;;;6.70;99.90;;;;;;6248666;23;20715;-68
2021/10/10 05:11:56;;;;;;;16.27;14.63;;;6.70;99.90;;;;;;6247912;22;20438;-69
2021/10/10 05:14:22;;;;;;;17.60;15.80;;;6.70;99.90;;;;;;6247554;23;20415;-68
2021/10/10 05:16:49;;;;;;;17.03;14.27;;;6.70;99.90;;;;;;6247715;23;20450;-68
2021/10/10 05:19:16;;;;;;;16.30;14.63;;;6.70;99.90;;;;;;6247975;23;20474;-68
2021/10/10 05:21:42;;;;;;;18.33;14.53;;;6.70;99.90;;;;;;6257668;22;20434;-69
2021/10/10 05:24:09;;;;;;;15.30;13.90;;;6.70;99.90;;;;;;6249651;23;20922;-68
2021/10/10 05:26:37;;;;;;;17.93;14.00;;;6.70;99.90;;;;;;6247742;23;20529;-69
2021/10/10 05:29:04;;;;;;;16.93;15.30;;;6.70;99.90;;;;;;6247469;23;20475;-69
2021/10/10 05:31:31;;;;;;;16.83;15.13;;;6.70;99.90;;;;;;6247726;22;20749;-68
2021/10/10 05:33:58;;;;;;;15.97;14.43;;;6.70;99.90;;;;;;6247590;23;20434;-69
2021/10/10 05:36:25;;;;;;;19.83;15.50;;;6.60;99.90;;;;;;6247745;23;20417;-69
2021/10/10 05:38:51;;;;;;;16.87;15.17;;;6.60;99.90;;;;;;6247455;23;20414;-68
2021/10/10 05:41:18;;;;;;;16.53;14.80;;;6.60;99.90;;;;;;6247086;22;20445;-69
2021/10/10 05:43:46;;;;;;;17.37;15.00;;;6.60;99.90;;;;;;6247566;23;20414;-69
2021/10/10 05:46:13;;;;;;;17.87;14.60;;;6.60;99.90;;;;;;6247365;23;20469;-68
2021/10/10 05:48:40;;;;;;;16.47;14.80;;;6.60;99.90;;;;;;6247499;23;20418;-68
2021/10/10 05:51:06;;;;;;;16.67;14.87;;;6.60;99.90;;;;;;6247417;22;20434;-68
2021/10/10 05:53:33;;;;;;;20.70;15.80;;;6.60;99.90;;;;;;6247826;23;20418;-68
2021/10/10 05:56:02;;;;;;;17.35;15.57;;;6.60;99.90;;;;;;6246489;23;20412;-68
2021/10/10 05:58:32;;;;;;;18.70;14.57;;;6.70;99.90;;;;;;6247693;23;20168;-68
2021/10/10 06:01:00;;;;;;;18.43;16.43;;;6.70;99.90;;;;;;6246609;22;20819;-69
2021/10/10 06:03:27;;;;;;;17.20;14.77;;;6.80;99.90;;;;;;6247253;23;20434;-69
2021/10/10 06:05:53;;;;;;;15.73;14.17;;;6.80;99.90;;;;;;6247230;23;20411;-68
2021/10/10 06:08:20;;;;;;;16.70;14.80;;;6.80;99.90;;;;;;6247240;23;20918;-68
2021/10/10 06:10:47;;;;;;;17.37;15.27;;;6.80;99.90;;;;;;6247269;22;20434;-69
2021/10/10 06:13:14;;;;;;;19.60;15.67;;;6.80;99.90;;;;;;6247626;23;20743;-71
2021/10/10 06:15:41;;;;;;;17.63;15.83;;;6.80;99.90;;;;;;6247543;23;20717;-68
2021/10/10 06:18:09;;;;;;;20.00;17.20;;;6.90;99.90;;;;;;6247438;23;20403;-68
2021/10/10 06:20:37;;;;;;;19.83;16.83;;;6.90;99.90;;;;;;6247342;22;20439;-69
2021/10/10 06:23:04;;;;;;;18.20;14.80;;;6.90;99.90;;;;;;6247569;23;20411;-70
2021/10/10 06:25:30;;;;;;;19.30;17.10;;;7.00;99.90;;;;;;6247811;23;20418;-70
2021/10/10 06:27:57;;;;;;;18.40;16.13;;;7.00;99.90;;;;;;6248625;23;20417;-69
2021/10/10 06:30:24;;;;;;;15.80;14.00;;;7.10;99.90;;;;;;6256641;22;20406;-70
2021/10/10 06:32:50;;;;;;;20.20;14.40;;;7.20;99.90;;;;;;6255657;23;20417;-69
2021/10/10 06:35:18;;;;;;;15.87;13.63;;;7.30;99.90;;;;;;6252801;23;20407;-69
2021/10/10 06:37:45;;;;;;;17.00;14.97;;;7.40;99.90;;;;;;6251615;23;20418;-69
2021/10/10 06:40:12;;;;;;;17.10;13.60;;;7.70;99.90;;;;;;6246981;22;20485;-70
2021/10/10 06:42:39;;;;;;;22.60;13.67;;;8.40;99.90;;;;;;6247115;23;20733;-69
2021/10/10 06:45:07;;;;;;;13.33;12.03;;;9.40;99.90;;;;;;6247665;23;20411;-69
2021/10/10 06:47:33;;;;;;;13.00;11.80;;;10.40;99.90;;;;;;6251370;23;20706;-68
2021/10/10 06:50:00;;;;;;;15.30;13.00;;;11.20;99.90;;;;;;6247918;23;20414;-69
2021/10/10 06:52:28;;;;;;;17.23;12.70;;;11.90;99.90;;;;;;6247746;22;20438;-69
2021/10/10 06:54:55;;;;;;;14.00;12.27;;;12.40;99.90;;;;;;6250739;23;20415;-69
2021/10/10 06:57:22;;;;;;;15.27;13.03;;;13.10;99.90;;;;;;6247223;23;20411;-68
2021/10/10 06:59:48;;;;;;;14.87;13.37;;;13.50;99.90;;;;;;6247227;23;20419;-70
2021/10/10 07:02:15;;;;;;;16.13;12.77;;;14.40;99.90;;;;;;6246510;22;20445;-69
2021/10/10 07:04:42;;;;;;;13.67;12.37;;;14.70;99.90;;;;;;6247126;23;20410;-68
2021/10/10 07:07:10;;;;;;;13.60;12.40;;;15.10;99.90;;;;;;6246729;23;20930;-69
2021/10/10 07:09:38;;;;;;;13.77;12.57;;;15.90;99.90;;;;;;6246648;23;20418;-69
2021/10/10 07:12:05;;;;;;;12.93;11.73;;;16.60;99.90;;;;;;6247095;22;20433;-69
2021/10/10 07:14:31;;;;;;;14.13;12.57;;;17.10;99.90;;;;;;6247192;23;20418;-69
2021/10/10 07:16:58;;;;;;;13.40;12.10;;;17.60;99.90;;;;;;6247114;23;20738;-70
2021/10/10 07:19:32;;;;;;;13.90;12.70;;;18.20;97.80;;;;;;6246954;23;20740;-70
2021/10/10 07:22:02;;;;;;;15.10;13.67;;;17.90;96.40;;;;;;6246834;22;20943;-69
2021/10/10 07:27:15;;;;;;;14.20;12.97;;;16.80;99.80;;;;;;6247574;23;20394;-70
2021/10/10 07:29:42;;;;;;;14.33;12.83;;;16.90;97.60;;;;;;6247291;23;20418;-71
2021/10/10 07:32:08;;;;;;;13.90;12.47;;;17.10;98.40;;;;;;6249658;22;20434;-68
2021/10/10 07:34:35;;;;;;;14.80;12.67;;;17.90;99.40;;;;;;6249514;23;20418;-68
2021/10/10 07:37:02;;;;;;;14.03;12.63;;;18.00;98.30;;;;;;6249663;23;20414;-69
2021/10/10 07:39:28;;;;;;;14.23;12.77;;;17.80;99.90;;;;;;6249336;23;20411;-70
2021/10/10 07:42:01;;;;;;;13.60;12.20;;;18.00;99.90;;;;;;6249495;22;20442;-71
2021/10/10 07:44:30;;;;;;;14.77;13.40;;;18.60;99.80;;;;;;6248862;23;20395;-69
2021/10/10 07:47:07;;;;;;;14.83;13.30;;;18.30;96.10;;;;;;6249576;23;20414;-70
2021/10/10 07:49:34;;;;;;;15.47;13.33;;;18.50;97.10;;;;;;6248958;23;20395;-69
2021/10/10 07:52:02;;;;;;;14.13;12.93;;;19.40;94.20;;;;;;6249218;22;20863;-71
2021/10/10 07:54:29;;;;;;;13.80;12.60;;;19.20;94.40;;;;;;6249192;23;20410;-70
2021/10/10 07:56:56;;;;;;;13.43;12.20;;;20.40;92.20;;;;;;6248639;23;20414;-70
2021/10/10 07:59:22;;;;;;;15.30;13.60;;;20.80;91.10;;;;;;6249303;23;20424;-69
2021/10/10 08:01:50;;;;;;;15.53;13.40;;;21.30;88.60;;;;;;6248805;22;20461;-68
2021/10/10 08:04:17;;;;;;;14.53;13.17;;;21.20;88.30;;;;;;6249079;23;20444;-68
2021/10/10 08:06:44;;;;;;;14.87;13.30;;;20.70;83.90;;;;;;6248724;23;20415;-68
2021/10/10 08:09:11;;;;;;;14.63;13.30;;;21.20;82.90;;;;;;6248907;23;20790;-67
2021/10/10 08:11:37;;;;;;;13.10;12.00;;;21.90;78.90;;;;;;6248604;22;20431;-68
2021/10/10 08:14:04;;;;;;;13.90;12.60;;;22.50;75.30;;;;;;6249923;23;20411;-70
2021/10/10 08:16:31;;;;;;;15.53;13.60;;;22.80;75.10;;;;;;6249702;23;20464;-72
2021/10/10 08:18:59;;;;;;;14.60;13.20;;;23.00;73.70;;;;;;6250112;23;20411;-71
2021/10/10 08:21:26;;;;;;;15.60;14.00;;;22.90;72.40;;;;;;6248881;22;20435;-70
2021/10/10 08:23:53;;;;;;;13.97;12.50;;;22.80;75.60;;;;;;6248841;23;20407;-71
2021/10/10 08:26:20;;;;;;;15.10;13.60;;;23.20;72.20;;;;;;6249729;23;20418;-69
2021/10/10 08:28:46;;;;;;;15.50;13.90;;;22.60;71.90;;;;;;6251200;23;20415;-69
2021/10/10 08:31:13;;;;;;;14.13;12.77;;;23.00;73.60;;;;;;6248795;22;20430;-69
2021/10/10 08:33:40;;;;;;;14.27;12.93;;;23.20;68.30;;;;;;6248458;23;20410;-69
2021/10/10 08:36:08;;;;;;;15.97;14.27;;;23.50;66.10;;;;;;6248234;23;20418;-69
2021/10/10 08:38:35;;;;;;;15.57;13.97;;;23.70;66.30;;;;;;6248201;23;20410;-68
2021/10/10 08:41:03;;;;;;;15.00;13.40;;;24.10;65.40;;;;;;6248251;22;20461;-69
2021/10/10 08:43:31;;;;;;;14.93;13.63;;;24.20;65.20;;;;;;6247821;23;20443;-68
2021/10/10 08:46:00;;;;;;;14.80;13.60;;;24.50;63.60;;;;;;6248431;23;20446;-69
2021/10/10 08:48:27;;;;;;;15.33;13.77;;;25.30;61.00;;;;;;6248118;23;20418;-68
2021/10/10 08:50:55;;;;;;;15.67;13.33;;;25.50;59.40;;;;;;6247543;22;20427;-68
2021/10/10 08:53:25;;;;;;;16.47;15.07;;;26.00;58.20;;;;;;6247839;23;20411;-68
2021/10/10 08:55:52;;;;;;;16.67;14.73;;;26.30;56.50;;;;;;6247303;23;20922;-68
2021/10/10 08:58:21;;;;;;;17.67;15.87;;;26.20;57.40;;;;;;6248583;23;20410;-70
2021/10/10 09:00:50;;;;;;;15.63;14.33;;;25.40;56.50;;;;;;6247899;22;20525;-67
2021/10/10 09:03:18;;;;;;;16.43;15.00;;;25.50;58.00;;;;;;6247947;23;20411;-68
2021/10/10 09:05:45;;;;;;;16.20;13.80;;;26.00;56.20;;;;;;6248878;23;20715;-67
2021/10/10 09:08:12;;;;;;;15.83;14.20;;;26.10;56.80;;;;;;6247925;23;20472;-67
2021/10/10 09:10:40;;;;;;;16.00;14.60;;;25.40;56.70;;;;;;6247778;22;20439;-67
2021/10/10 09:13:09;;;;;;;16.93;15.33;;;25.20;56.60;;;;;;6248285;23;20760;-68
2021/10/10 09:15:37;;;;;;;16.63;14.90;;;25.00;57.90;;;;;;6247551;23;20417;-68
2021/10/10 09:18:06;;;;;;;15.07;13.77;;;25.60;56.80;;;;;;6247712;23;20437;-68
2021/10/10 09:20:35;;;;;;;15.30;13.87;;;25.70;58.60;;;;;;6247639;22;20439;-69
2021/10/10 09:23:04;;;;;;;18.27;15.27;;;24.60;57.80;;;;;;6247403;23;20437;-68
2021/10/10 09:25:31;;;;;;;15.30;14.10;;;25.40;57.40;;;;;;6247795;23;20407;-68
2021/10/10 09:28:04;;;;;;;15.43;13.80;;;26.10;56.20;;;;;;6247254;23;20418;-68
2021/10/10 09:30:47;;;;;;;15.00;13.80;;;26.60;59.00;;;;;;6248430;22;20696;-68
2021/10/10 09:33:15;;;;;;;16.63;14.77;;;26.50;56.40;;;;;;6247828;23;20392;-68
2021/10/10 09:35:42;;;;;;;16.10;14.70;;;26.20;60.20;;;;;;6247694;23;20415;-68
2021/10/10 09:38:14;;;;;;;14.90;13.60;;;25.40;58.40;;;;;;6247714;23;20417;-69
2021/10/10 09:40:46;;;;;;;15.63;14.23;;;25.50;63.30;;;;;;6247498;22;20481;-67
2021/10/10 09:43:14;;;;;;;16.53;14.90;;;26.50;56.70;;;;;;6247498;23;20395;-68
2021/10/10 09:45:52;;;;;;;16.80;15.27;;;26.80;55.40;;;;;;6247546;23;20433;-68
2021/10/10 09:48:29;;;;;;;15.77;14.17;;;27.20;52.90;;;;;;6248356;23;20466;-68
2021/10/10 09:50:55;;;;;;;16.13;14.63;;;27.70;54.40;;;;;;6247529;22;20434;-67
2021/10/10 09:53:31;;;;;;;17.50;15.90;;;27.00;54.40;;;;;;6247172;23;20411;-67
2021/10/10 09:55:59;;;;;;;17.37;15.67;;;27.00;53.60;;;;;;6248048;23;20399;-67
2021/10/10 09:58:37;;;;;;;16.40;14.97;;;26.20;53.20;;;;;;6247531;23;20723;-68
2021/10/10 10:01:14;;;;;;;15.87;14.23;;;26.30;54.70;;;;;;6247608;22;20449;-68
2021/10/10 10:03:56;;;;;;;14.30;13.10;;;26.70;57.00;;;;;;6247590;23;20430;-68
2021/10/10 10:06:23;;;;;;;18.13;15.33;;;27.30;54.40;;;;;;6247879;23;20469;-68
2021/10/10 10:08:50;;;;;;;15.00;13.53;;;26.70;54.70;;;;;;6247281;23;20411;-67
2021/10/10 10:11:17;;;;;;;19.57;14.40;;;26.40;54.70;;;;;;6247884;22;20436;-67
2021/10/10 10:13:46;;;;;;;15.73;14.23;;;24.90;53.70;;;;;;6253953;23;20410;-68
2021/10/10 10:16:16;;;;;;;16.20;14.50;;;25.10;55.90;;;;;;6246998;23;20425;-68
2021/10/10 10:18:43;;;;;;;16.27;14.53;;;25.60;54.70;;;;;;6247262;23;20525;-68
2021/10/10 10:21:10;;;;;;;16.40;14.80;;;26.20;54.70;;;;;;6246983;22;20453;-68
2021/10/10 10:23:37;;;;;;;15.17;13.80;;;26.80;52.50;;;;;;6246873;23;20896;-68
2021/10/10 10:26:04;;;;;;;16.33;14.57;;;27.30;51.90;;;;;;6246735;23;20751;-68
2021/10/10 10:28:33;;;;;;;17.20;15.60;;;26.50;53.70;;;;;;6247368;23;20417;-67
2021/10/10 10:31:01;;;;;;;16.40;14.80;;;26.00;54.40;;;;;;6247468;22;20434;-67
2021/10/10 10:33:30;;;;;;;14.83;13.33;;;26.00;56.00;;;;;;6247112;23;20411;-68
2021/10/10 10:35:57;;;;;;;15.03;13.60;;;25.90;55.00;;;;;;6247404;23;20410;-68
2021/10/10 10:38:46;;;;;;;15.60;14.00;;;26.40;53.60;;;;;;6247308;23;20418;-68
2021/10/10 10:41:48;;;;;;;15.40;13.90;;;26.80;52.50;;;;;;6246824;22;20876;-67
2021/10/10 10:44:34;;;;;;;16.53;14.90;;;26.30;52.40;;;;;;6247633;23;20410;-69
2021/10/10 10:47:04;;;;;;;17.90;14.37;;;25.50;53.10;;;;;;6247239;23;20403;-69
2021/10/10 10:50:08;;;;;;;15.07;13.70;;;25.30;56.90;;;;;;6247705;23;20399;-69
2021/10/10 10:52:37;;;;;;;20.63;16.43;;;25.00;54.70;;;;;;6247869;22;20476;-69
2021/10/10 10:55:19;;;;;;;16.87;13.70;;;24.20;55.80;;;;;;6247572;23;20415;-68
2021/10/10 10:57:53;;;;;;;15.50;13.90;;;23.80;57.00;;;;;;6247330;23;20410;-69
2021/10/10 11:00:28;;;;;;;14.60;13.30;;;23.00;59.60;;;;;;6247132;22;20434;-69
2021/10/10 11:03:15;;;;;;;16.23;14.57;;;22.10;60.40;;;;;;6247125;23;20918;-68
2021/10/10 11:05:45;;;;;;;15.73;12.93;;;21.60;61.90;;;;;;6247535;23;20414;-70
2021/10/10 11:08:34;;;;;;;16.47;14.73;;;21.10;62.80;;;;;;6249833;23;20407;-69
2021/10/10 11:11:12;;;;;;;18.40;14.30;;;21.10;60.00;;;;;;6249678;22;20437;-68
2021/10/10 11:13:41;;;;;;;14.73;13.20;;;20.90;61.10;;;;;;6249804;23;20395;-68
2021/10/10 11:16:09;;;;;;;13.87;12.57;;;20.40;60.20;;;;;;6249685;23;20411;-69
2021/10/10 11:18:42;;;;;;;15.43;13.90;;;20.50;62.50;;;;;;6249839;23;20410;-69
2021/10/10 11:21:11;;;;;;;15.13;13.73;;;20.10;66.10;;;;;;6249963;22;20438;-68
2021/10/10 11:23:38;;;;;;;15.50;14.07;;;20.00;64.10;;;;;;6250279;23;20429;-68
2021/10/10 11:26:07;;;;;;;14.57;13.00;;;19.80;64.10;;;;;;6249244;23;20407;-69
2021/10/10 11:28:39;;;;;;;15.83;13.60;;;19.80;64.00;;;;;;6249495;23;20907;-69
2021/10/10 11:31:08;;;;;;;18.80;14.47;;;19.40;64.50;;;;;;6258814;22;20427;-69
2021/10/10 11:33:37;;;;;;;13.20;12.00;;;19.40;67.20;;;;;;6248700;23;20891;-69
2021/10/10 11:36:04;;;;;;;17.63;14.00;;;19.00;68.90;;;;;;6250147;23;20406;-68
2021/10/10 11:38:47;;;;;;;15.00;12.30;;;19.20;73.10;;;;;;6249319;23;20410;-68
2021/10/10 11:41:14;;;;;;;14.77;13.23;;;19.20;72.70;;;;;;6249160;22;20422;-66
2021/10/10 11:43:41;;;;;;;12.90;11.57;;;19.40;69.00;;;;;;6248863;23;20438;-67
2021/10/10 11:46:07;;;;;;;15.17;13.57;;;19.50;64.20;;;;;;6249218;23;20410;-67
2021/10/10 11:48:37;;;;;;;13.73;12.53;;;19.70;69.60;;;;;;6249066;23;20415;-68
2021/10/10 11:51:04;;;;;;;15.07;13.43;;;19.50;69.70;;;;;;6248840;22;20466;-68
2021/10/10 11:53:39;;;;;;;16.20;11.80;;;19.40;67.60;;;;;;6248781;23;20884;-68
2021/10/10 11:56:05;;;;;;;14.97;13.00;;;19.30;73.90;;;;;;6248619;23;20395;-68
2021/10/10 11:58:33;;;;;;;13.33;12.03;;;19.40;68.80;;;;;;6248594;23;20399;-68
2021/10/10 12:01:08;;;;;;;16.40;11.83;;;19.50;65.70;;;;;;6249573;22;20478;-68
2021/10/10 12:03:35;;;;;;;14.50;11.97;;;19.70;69.10;;;;;;6248558;23;20418;-68
2021/10/10 12:06:03;;;;;;;14.10;12.70;;;19.90;66.90;;;;;;6248737;23;20391;-67
2021/10/10 12:08:30;;;;;;;19.13;13.63;;;19.50;65.80;;;;;;6249072;23;20434;-67
2021/10/10 12:10:56;;;;;;;14.37;12.97;;;19.70;70.60;;;;;;6251842;22;20431;-69
2021/10/10 12:13:23;;;;;;;13.40;11.63;;;19.60;68.00;;;;;;6253859;23;20407;-67
2021/10/10 12:15:59;;;;;;;11.80;10.63;;;19.80;69.00;;;;;;6249186;23;20407;-67
2021/10/10 12:18:29;;;;;;;23.63;13.20;;;19.80;66.90;;;;;;6249134;23;20418;-68
2021/10/10 12:21:26;;;;;;;17.03;11.13;;;19.60;64.60;;;;;;6248373;22;20442;-67
2021/10/10 12:24:07;;;;;;;15.53;11.67;;;19.60;67.50;;;;;;6248199;23;20418;-68
2021/10/10 12:26:51;;;;;;;12.43;11.17;;;19.70;66.00;;;;;;6248803;23;20448;-68
2021/10/10 12:29:23;;;;;;;14.00;11.97;;;19.70;66.20;;;;;;6248192;23;20918;-68
2021/10/10 12:31:50;;;;;;;13.70;12.40;;;19.60;66.90;;;;;;6248494;22;20431;-68
2021/10/10 12:34:17;;;;;;;12.30;10.40;;;19.70;65.50;;;;;;6248724;23;20396;-67
2021/10/10 12:36:46;;;;;;;12.90;11.17;;;19.60;69.30;;;;;;6247744;23;20716;-67
2021/10/10 12:39:14;;;;;;;13.30;11.97;;;19.90;63.80;;;;;;6248313;23;20403;-67
2021/10/10 12:41:41;;;;;;;12.60;11.30;;;20.10;63.70;;;;;;6248116;22;20431;-67
2021/10/10 12:44:16;;;;;;;11.80;10.53;;;20.20;64.00;;;;;;6247989;23;20395;-65
2021/10/10 12:46:51;;;;;;;11.80;10.67;;;20.00;66.70;;;;;;6248204;23;20395;-66
2021/10/10 12:49:29;;;;;;;16.70;11.67;;;20.00;67.90;;;;;;6248159;23;20394;-65
2021/10/10 12:51:58;;;;;;;13.40;11.07;;;20.00;69.70;;;;;;6247693;22;20438;-65
2021/10/10 12:54:26;;;;;;;13.23;11.37;;;20.00;71.40;;;;;;6248001;23;20418;-66
2021/10/10 12:57:04;;;;;;;14.10;12.67;;;20.10;63.90;;;;;;6248134;23;20438;-67
2021/10/10 12:59:32;;;;;;;11.90;10.73;;;19.80;68.00;;;;;;6248635;23;20410;-67
2021/10/10 13:01:59;;;;;;;13.40;9.80;;;19.60;66.80;;;;;;6252878;22;20778;-67
2021/10/10 13:04:27;;;;;;;16.73;10.37;;;19.70;64.70;;;;;;6249198;23;20924;-67
2021/10/10 13:06:54;;;;;;;11.13;10.03;;;19.60;66.60;;;;;;6248033;23;20454;-68
2021/10/10 13:09:25;;;;;;;13.83;9.43;;;19.60;64.60;;;;;;6248271;23;20435;-67
2021/10/10 13:11:54;;;;;;;11.30;9.70;;;19.80;66.00;;;;;;6247414;22;20820;-67
2021/10/10 13:14:21;;;;;;;11.33;10.07;;;19.60;65.00;;;;;;6257569;23;20414;-67
2021/10/10 13:16:48;;;;;;;11.20;9.60;;;19.50;67.40;;;;;;6248149;23;20407;-67
2021/10/10 13:19:15;;;;;;;11.07;9.97;;;19.50;65.10;;;;;;6247818;23;20411;-67
2021/10/10 13:21:43;;;;;;;10.50;9.40;;;19.50;64.20;;;;;;6247422;22;20489;-67
2021/10/10 13:24:10;;;;;;;10.33;9.27;;;19.50;63.30;;;;;;6247727;23;20514;-67
2021/10/10 13:26:38;;;;;;;12.70;9.53;;;19.50;63.70;;;;;;6247971;23;20743;-67
2021/10/10 13:29:06;;;;;;;10.93;9.90;;;19.40;65.40;;;;;;6247278;23;20415;-67
2021/10/10 13:31:34;;;;;;;12.53;9.43;;;19.40;68.20;;;;;;6247393;22;20431;-67
2021/10/10 13:34:01;;;;;;;11.83;9.40;;;19.20;65.90;;;;;;6247434;23;20430;-67
2021/10/10 13:36:27;;;;;;;11.40;10.30;;;18.90;71.30;;;;;;6247448;23;20411;-69
2021/10/10 13:38:54;;;;;;;11.30;10.13;;;19.10;70.60;;;;;;6247276;23;20437;-68
2021/10/10 13:41:21;;;;;;;12.13;10.90;;;19.20;67.20;;;;;;6247039;22;20438;-67
2021/10/10 13:43:49;;;;;;;13.43;9.80;;;19.10;67.30;;;;;;6247380;23;20431;-67
2021/10/10 13:46:16;;;;;;;11.00;9.90;;;19.10;68.20;;;;;;6247458;23;20411;-67
2021/10/10 13:48:43;;;;;;;10.70;9.60;;;19.00;66.00;;;;;;6247484;23;20446;-67
2021/10/10 13:51:10;;;;;;;10.63;9.20;;;19.30;67.00;;;;;;6246879;22;20915;-68
2021/10/10 13:53:37;;;;;;;11.80;10.47;;;19.10;66.90;;;;;;6247395;23;20406;-67
2021/10/10 13:56:05;;;;;;;10.87;9.57;;;19.00;69.00;;;;;;6247522;23;20418;-68
2021/10/10 13:58:32;;;;;;;10.13;9.23;;;18.70;65.40;;;;;;6247625;23;20411;-68
2021/10/10 14:01:00;;;;;;;9.07;8.23;;;18.80;69.20;;;;;;6247321;22;20438;-67
2021/10/10 14:03:29;;;;;;;11.00;8.87;;;18.80;65.60;;;;;;6247623;23;20442;-67
2021/10/10 14:05:56;;;;;;;9.17;7.70;;;18.90;66.40;;;;;;6247271;23;20441;-66
2021/10/10 14:08:23;;;;;;;10.30;9.30;;;19.10;65.00;;;;;;6247329;23;20418;-67
2021/10/10 14:10:51;;;;;;;8.93;8.03;;;18.90;61.70;;;;;;6251940;22;20431;-68
2021/10/10 14:13:19;;;;;;;8.00;7.20;;;19.00;65.10;;;;;;6248233;23;20484;-67
2021/10/10 14:15:47;;;;;;;8.10;7.30;;;19.00;60.10;;;;;;6247714;23;20407;-68
2021/10/10 14:18:16;;;;;;;8.00;7.30;;;19.10;61.00;;;;;;6246988;23;20418;-67
2021/10/10 14:20:43;;;;;;;11.33;8.70;;;19.10;62.60;;;;;;6247023;22;20435;-67
2021/10/10 14:23:10;;;;;;;9.20;7.67;;;19.00;59.60;;;;;;6257643;23;20442;-67
2021/10/10 14:25:38;;;;;;;7.90;7.07;;;19.10;60.40;;;;;;6247215;23;20445;-67
2021/10/10 14:28:05;;;;;;;17.20;7.50;;;19.00;60.60;;;;;;6247105;23;20411;-68
2021/10/10 14:30:32;;;;;;;11.03;7.70;;;18.90;63.00;;;;;;6247264;22;20411;-68
2021/10/10 14:32:59;;;;;;;8.13;7.23;;;18.50;61.40;;;;;;6247231;23;20414;-69
2021/10/10 14:35:27;;;;;;;11.20;7.07;;;18.60;63.20;;;;;;6247188;23;20411;-66
2021/10/10 14:37:54;;;;;;;11.33;7.10;;;18.50;65.50;;;;;;6247766;23;20417;-67
2021/10/10 14:40:21;;;;;;;8.67;6.97;;;18.50;61.10;;;;;;6246802;22;20415;-67
2021/10/10 14:42:50;;;;;;;8.93;6.90;;;18.50;60.50;;;;;;6247058;23;20462;-66
2021/10/10 14:45:19;;;;;;;8.13;7.37;;;18.60;59.20;;;;;;6247461;23;20411;-67
2021/10/10 14:48:00;;;;;;;11.03;7.33;;;18.50;58.50;;;;;;6247249;23;20411;-66
2021/10/10 14:50:29;;;;;;;12.30;8.37;;;18.40;63.70;;;;;;6247345;22;20399;-68
2021/10/10 14:52:56;;;;;;;12.47;7.00;;;18.50;61.70;;;;;;6246932;23;20717;-67
2021/10/10 14:55:25;;;;;;;8.80;7.00;;;18.40;60.60;;;;;;6246674;23;20907;-67
2021/10/10 14:57:52;;;;;;;10.30;7.97;;;18.30;61.60;;;;;;6247231;23;20709;-68
2021/10/10 15:00:20;;;;;;;9.83;8.50;;;18.30;63.60;;;;;;6246352;22;20896;-69
2021/10/10 15:02:47;;;;;;;10.30;7.60;;;18.30;64.40;;;;;;6246490;23;21006;-67
2021/10/10 15:05:14;;;;;;;8.70;7.90;;;18.20;64.80;;;;;;6246588;23;20417;-67
2021/10/10 15:07:44;;;;;;;9.80;8.40;;;18.30;65.70;;;;;;6246883;23;20415;-66
2021/10/10 15:10:11;;;;;;;9.53;8.67;;;18.00;64.70;;;;;;6246859;23;20461;-66
2021/10/10 15:12:39;;;;;;;10.07;8.77;;;18.00;66.70;;;;;;6246639;22;20427;-66
2021/10/10 15:15:08;;;;;;;10.27;9.40;;;17.90;68.20;;;;;;6245900;23;20410;-66
2021/10/10 15:17:35;;;;;;;10.80;9.70;;;17.70;69.80;;;;;;6246622;23;20409;-68
2021/10/10 15:20:03;;;;;;;11.00;10.00;;;17.50;71.70;;;;;;6246841;23;20402;-67
2021/10/10 15:22:30;;;;;;;11.33;9.70;;;17.30;72.00;;;;;;6246655;22;20433;-67
2021/10/10 15:24:58;;;;;;;11.67;9.70;;;17.20;73.50;;;;;;6247749;23;20411;-68
2021/10/10 15:27:25;;;;;;;10.50;9.50;;;17.20;74.20;;;;;;6246699;23;20411;-67
2021/10/10 15:29:52;;;;;;;10.87;9.47;;;17.10;72.80;;;;;;6246410;23;20411;-67
2021/10/10 15:32:19;;;;;;;10.80;9.07;;;17.00;72.00;;;;;;6246795;22;20438;-67
2021/10/10 15:34:46;;;;;;;14.40;9.63;;;16.90;74.10;;;;;;6246386;23;20419;-66
2021/10/10 15:37:13;;;;;;;11.17;9.30;;;16.70;75.30;;;;;;6246534;23;20418;-66
2021/10/10 15:39:40;;;;;;;11.03;9.80;;;16.50;77.40;;;;;;6246832;23;20473;-66
2021/10/10 15:42:08;;;;;;;13.03;10.30;;;16.20;78.40;;;;;;6246850;22;20489;-66
2021/10/10 15:44:35;;;;;;;13.93;10.50;;;16.10;78.70;;;;;;6246506;23;20763;-67
2021/10/10 15:47:03;;;;;;;10.60;9.60;;;16.00;80.20;;;;;;6247018;23;20410;-68
2021/10/10 15:49:30;;;;;;;9.47;8.47;;;16.00;82.00;;;;;;6246733;23;20411;-66
2021/10/10 15:51:56;;;;;;;13.07;10.47;;;15.90;81.20;;;;;;6247859;22;20435;-67
2021/10/10 15:54:23;;;;;;;11.30;9.27;;;15.80;81.90;;;;;;6248590;23;20785;-66
2021/10/10 15:56:51;;;;;;;11.10;9.70;;;15.70;91.50;;;;;;6249011;23;20415;-68
2021/10/10 15:59:20;;;;;;;12.57;9.80;;;15.70;86.30;;;;;;6248901;23;20474;-68
2021/10/10 16:01:46;;;;;;;12.10;10.53;;;15.60;85.20;;;;;;6249123;22;20808;-68
2021/10/10 16:04:13;;;;;;;11.70;10.40;;;15.60;86.10;;;;;;6254306;23;20934;-68
2021/10/10 16:06:40;;;;;;;11.53;10.33;;;15.40;90.70;;;;;;6252434;23;20418;-68
2021/10/10 16:09:07;;;;;;;10.83;9.70;;;15.40;90.00;;;;;;6253464;23;20736;-68
2021/10/10 16:11:33;;;;;;;11.40;10.23;;;15.40;89.40;;;;;;6251884;22;20427;-68
2021/10/10 16:14:00;;;;;;;10.27;9.27;;;15.30;90.20;;;;;;6248745;23;20840;-68
2021/10/10 16:16:28;;;;;;;10.10;9.10;;;15.30;90.80;;;;;;6249222;23;20395;-69
2021/10/10 16:18:55;;;;;;;10.60;9.70;;;15.20;94.90;;;;;;6248703;23;20418;-68
2021/10/10 16:21:21;;;;;;;10.70;9.60;;;15.20;93.10;;;;;;6248870;22;20434;-68
2021/10/10 16:23:48;;;;;;;11.43;10.10;;;15.20;91.80;;;;;;6249027;23;20434;-68
2021/10/10 16:26:15;;;;;;;12.37;10.63;;;15.10;91.90;;;;;;6249470;23;20418;-68
2021/10/10 16:28:42;;;;;;;14.00;12.50;;;15.00;92.00;;;;;;6249048;23;20411;-68
2021/10/10 16:31:08;;;;;;;40.13;32.60;;;15.00;92.10;;;;;;6249222;22;20442;-68
2021/10/10 16:33:41;;;;;;;35.57;30.00;;;14.80;94.30;;;;;;6249177;23;20414;-68
2021/10/10 16:36:11;;;;;;;26.13;21.23;;;14.70;99.10;;;;;;6249514;23;20414;-69
2021/10/10 16:38:40;;;;;;;31.57;28.20;;;14.60;99.90;;;;;;6248926;23;20395;-68
2021/10/10 16:41:19;;;;;;;30.40;25.57;;;14.60;99.90;;;;;;6248836;22;20483;-68